createdAt,value
2019-02-27T00:00:33.575Z,99.40
2019-02-27T00:03:28.769Z,99.30
2019-02-27T00:12:42.021Z,99.80
2019-02-27T00:15:10.848Z,99.30
2019-02-27T00:17:39.477Z,99.80
2019-02-27T00:20:08.209Z,99.90
2019-02-27T00:22:36.825Z,99.90
2019-02-27T00:25:05.853Z,99.90
2019-02-27T00:27:34.400Z,99.90
2019-02-27T00:30:05.601Z,99.90
2019-02-27T00:32:33.458Z,99.90
2019-02-27T00:35:06.141Z,99.90
2019-02-27T00:37:32.524Z,99.90
2019-02-27T00:40:05.322Z,99.90
2019-02-27T00:42:33.759Z,99.90
2019-02-27T00:45:01.631Z,99.90
2019-02-27T00:47:30.221Z,99.90
2019-02-27T00:49:58.829Z,99.90
2019-02-27T00:52:27.553Z,99.90
2019-02-27T00:54:56.175Z,99.90
2019-02-27T00:57:24.785Z,99.90
2019-02-27T00:59:53.496Z,99.90
2019-02-27T01:02:22.107Z,99.90
2019-02-27T01:04:50.749Z,99.90
2019-02-27T01:07:20.734Z,99.90
2019-02-27T01:09:50.324Z,99.90
2019-02-27T01:12:19.010Z,99.90
2019-02-27T01:14:47.659Z,99.90
2019-02-27T01:17:16.280Z,99.90
2019-02-27T01:19:44.852Z,99.90
2019-02-27T01:22:13.511Z,99.90
2019-02-27T01:24:42.146Z,99.90
2019-02-27T01:27:10.837Z,99.90
2019-02-27T01:29:39.488Z,99.90
2019-02-27T01:32:08.050Z,99.90
2019-02-27T01:34:36.600Z,99.90
2019-02-27T01:37:05.253Z,99.90
2019-02-27T01:39:33.804Z,99.90
2019-02-27T01:42:02.623Z,99.90
2019-02-27T01:44:31.276Z,99.90
2019-02-27T01:47:02.276Z,99.90
2019-02-27T01:49:30.237Z,99.90
2019-02-27T01:51:59.159Z,99.90
2019-02-27T01:54:29.048Z,99.90
2019-02-27T01:56:59.901Z,99.90
2019-02-27T01:59:28.072Z,99.90
2019-02-27T02:01:56.652Z,99.90
2019-02-27T02:04:25.363Z,99.90
2019-02-27T02:06:54.025Z,99.90
2019-02-27T02:09:35.848Z,99.90
2019-02-27T02:12:10.310Z,99.90
2019-02-27T02:14:44.711Z,99.90
2019-02-27T02:17:34.660Z,99.90
2019-02-27T02:23:14.261Z,99.90
2019-02-27T02:26:06.306Z,99.90
2019-02-27T02:28:55.991Z,99.90
2019-02-27T02:31:42.673Z,99.90
2019-02-27T02:34:32.125Z,99.90
2019-02-27T02:37:09.572Z,99.90
2019-02-27T02:39:56.457Z,99.90
2019-02-27T02:42:33.421Z,99.90
2019-02-27T02:45:33.107Z,99.90
2019-02-27T02:48:20.227Z,99.90
2019-02-27T02:51:00.400Z,99.90
2019-02-27T02:53:40.836Z,99.90
2019-02-27T02:56:23.968Z,99.90
2019-02-27T02:59:12.205Z,99.90
2019-02-27T03:01:49.365Z,99.90
2019-02-27T03:04:37.600Z,99.90
2019-02-27T03:07:21.001Z,99.90
2019-02-27T03:10:08.967Z,99.90
2019-02-27T03:13:07.428Z,99.90
2019-02-27T03:15:51.293Z,99.90
2019-02-27T03:18:43.786Z,99.90
2019-02-27T03:21:21.134Z,99.90
2019-02-27T03:23:58.399Z,99.90
2019-02-27T03:30:13.458Z,99.90
2019-02-27T03:32:47.834Z,99.90
2019-02-27T03:35:39.755Z,99.90
2019-02-27T03:38:14.366Z,99.90
2019-02-27T03:41:05.618Z,99.90
2019-02-27T03:43:45.667Z,99.90
2019-02-27T03:46:28.175Z,99.90
2019-02-27T03:49:26.891Z,99.90
2019-02-27T03:52:01.425Z,99.90
2019-02-27T03:54:57.060Z,99.90
2019-02-27T03:57:30.132Z,99.90
2019-02-27T04:00:18.072Z,99.90
2019-02-27T04:02:55.432Z,99.90
2019-02-27T04:05:46.433Z,99.90
2019-02-27T04:08:18.020Z,99.90
2019-02-27T04:10:46.802Z,99.90
2019-02-27T04:13:15.380Z,99.90
2019-02-27T04:15:44.145Z,99.90
2019-02-27T04:18:11.612Z,99.90
2019-02-27T04:20:40.634Z,99.90
2019-02-27T04:23:12.499Z,99.90
2019-02-27T04:25:39.462Z,99.90
2019-02-27T04:28:08.012Z,99.90
2019-02-27T04:30:36.672Z,99.90
2019-02-27T04:33:05.226Z,99.90
2019-02-27T04:38:24.990Z,99.90
2019-02-27T04:40:53.303Z,99.90
2019-02-27T04:43:21.852Z,99.90
2019-02-27T04:45:50.514Z,99.90
2019-02-27T04:48:19.138Z,99.90
2019-02-27T04:50:47.715Z,99.90
2019-02-27T04:53:16.284Z,99.90
2019-02-27T04:55:44.856Z,99.90
2019-02-27T04:58:13.549Z,99.90
2019-02-27T05:00:42.235Z,99.90
2019-02-27T05:03:10.848Z,99.90
2019-02-27T05:05:41.381Z,99.90
2019-02-27T05:08:09.724Z,99.90
2019-02-27T05:10:40.478Z,99.90
2019-02-27T05:13:08.516Z,99.90
2019-02-27T05:15:39.507Z,99.90
2019-02-27T05:18:07.306Z,99.90
2019-02-27T05:20:35.863Z,99.90
2019-02-27T05:23:04.511Z,99.90
2019-02-27T05:25:33.056Z,99.90
2019-02-27T05:28:02.100Z,99.90
2019-02-27T05:30:30.932Z,99.90
2019-02-27T05:33:02.127Z,99.90
2019-02-27T05:35:29.789Z,99.90
2019-02-27T05:37:58.353Z,99.90
2019-02-27T05:40:26.940Z,99.90
2019-02-27T05:42:55.501Z,99.90
2019-02-27T05:45:24.228Z,99.90
2019-02-27T05:47:52.776Z,99.90
2019-02-27T05:50:21.361Z,99.90
2019-02-27T05:52:49.920Z,99.90
2019-02-27T05:55:18.576Z,99.90
2019-02-27T05:57:47.204Z,99.90
2019-02-27T06:00:20.464Z,99.90
2019-02-27T06:02:49.052Z,99.90
2019-02-27T06:05:17.700Z,99.90
2019-02-27T06:07:46.256Z,99.90
2019-02-27T06:10:19.857Z,99.90
2019-02-27T06:12:47.587Z,99.90
2019-02-27T06:15:17.771Z,99.90
2019-02-27T06:17:49.058Z,99.90
2019-02-27T06:20:16.885Z,99.90
2019-02-27T06:22:45.696Z,99.90
2019-02-27T06:25:21.591Z,99.90
2019-02-27T06:27:47.392Z,99.90
2019-02-27T06:30:20.890Z,99.90
2019-02-27T06:32:50.007Z,99.90
2019-02-27T06:35:18.674Z,99.90
2019-02-27T06:37:50.399Z,99.90
2019-02-27T06:40:18.533Z,99.90
2019-02-27T06:42:47.576Z,99.90
2019-02-27T06:45:17.608Z,99.90
2019-02-27T06:47:46.232Z,99.90
2019-02-27T06:50:16.309Z,99.90
2019-02-27T06:52:44.938Z,99.90
2019-02-27T06:55:14.551Z,99.90
2019-02-27T06:57:43.414Z,99.90
2019-02-27T07:00:17.485Z,99.90
2019-02-27T07:02:46.107Z,99.90
2019-02-27T07:05:14.944Z,99.90
2019-02-27T07:07:43.564Z,99.90
2019-02-27T07:10:19.532Z,99.90
2019-02-27T07:12:45.249Z,99.90
2019-02-27T07:15:22.304Z,99.90
2019-02-27T07:17:50.975Z,99.90
2019-02-27T07:20:23.927Z,99.90
2019-02-27T07:22:51.448Z,99.90
2019-02-27T07:25:20.104Z,99.90
2019-02-27T07:27:48.748Z,99.90
2019-02-27T07:30:18.733Z,99.90
2019-02-27T07:32:47.452Z,99.90
2019-02-27T07:35:17.024Z,99.90
2019-02-27T07:37:47.974Z,99.90
2019-02-27T07:40:17.144Z,99.90
2019-02-27T07:42:45.699Z,99.90
2019-02-27T07:45:17.103Z,99.90
2019-02-27T07:47:45.760Z,99.90
2019-02-27T07:50:16.352Z,98.50
2019-02-27T07:52:45.002Z,96.60
2019-02-27T07:55:21.804Z,93.60
2019-02-27T07:57:48.209Z,92.60
2019-02-27T08:00:21.768Z,89.60
2019-02-27T08:02:50.385Z,82.00
2019-02-27T08:05:19.102Z,72.30
2019-02-27T08:07:49.137Z,68.00
2019-02-27T08:10:25.952Z,60.40
2019-02-27T08:12:56.528Z,56.40
2019-02-27T08:15:25.475Z,51.40
2019-02-27T08:17:57.613Z,49.40
2019-02-27T08:20:24.770Z,46.40
2019-02-27T08:22:53.396Z,44.70
2019-02-27T08:25:22.116Z,41.20
2019-02-27T08:27:50.807Z,38.50
2019-02-27T08:30:23.719Z,36.70
2019-02-27T08:32:52.272Z,35.50
2019-02-27T08:35:20.914Z,34.90
2019-02-27T08:37:49.600Z,33.60
2019-02-27T08:40:18.216Z,33.90
2019-02-27T08:42:46.800Z,33.60
2019-02-27T08:45:19.997Z,34.10
2019-02-27T08:47:47.868Z,36.80
2019-02-27T08:50:18.065Z,37.60
2019-02-27T08:52:50.145Z,38.10
2019-02-27T08:55:22.058Z,37.60
2019-02-27T08:57:49.971Z,36.80
2019-02-27T09:00:24.124Z,36.10
2019-02-27T09:02:52.946Z,36.50
2019-02-27T09:05:21.744Z,35.70
2019-02-27T09:07:50.396Z,34.30
2019-02-27T09:10:23.130Z,32.80
2019-02-27T14:11:20.225Z,31.30
2019-02-27T14:13:49.941Z,19.60
2019-02-27T14:16:18.494Z,19.60
2019-02-27T14:18:49.785Z,19.40
2019-02-27T14:21:17.411Z,19.80
2019-02-27T14:23:46.837Z,20.00
2019-02-27T14:26:16.191Z,19.80
2019-02-27T14:28:44.752Z,20.70
2019-02-27T14:31:13.340Z,21.80
2019-02-27T14:33:41.896Z,21.50
2019-02-27T14:36:10.486Z,21.20
2019-02-27T14:38:39.030Z,21.50
2019-02-27T14:41:07.680Z,22.40
2019-02-27T14:43:36.232Z,22.20
2019-02-27T14:46:04.886Z,21.90
2019-02-27T14:48:33.444Z,21.80
2019-02-27T14:51:02.091Z,22.70
2019-02-27T14:53:30.705Z,22.90
2019-02-27T14:55:59.359Z,22.80
2019-02-27T14:58:27.911Z,23.20
2019-02-27T15:00:56.564Z,23.00
2019-02-27T15:03:29.241Z,23.80
2019-02-27T15:05:56.240Z,22.80
2019-02-27T15:08:25.297Z,22.90
2019-02-27T15:10:54.853Z,23.20
2019-02-27T15:13:28.171Z,23.30
2019-02-27T15:15:53.779Z,23.40
2019-02-27T15:18:23.180Z,23.60
2019-02-27T15:20:52.028Z,24.00
2019-02-27T15:23:20.625Z,24.10
2019-02-27T15:25:49.264Z,24.30
2019-02-27T15:28:18.250Z,23.80
2019-02-27T15:30:47.377Z,25.20
2019-02-27T15:33:18.042Z,25.60
2019-02-27T15:35:46.650Z,25.80
2019-02-27T15:38:36.966Z,26.20
2019-02-27T15:41:05.888Z,27.70
2019-02-27T15:43:34.459Z,28.50
2019-02-27T15:46:03.181Z,29.40
2019-02-27T15:48:31.900Z,29.50
2019-02-27T15:51:00.785Z,30.40
2019-02-27T15:53:29.473Z,30.10
2019-02-27T15:55:58.287Z,32.00
2019-02-27T15:58:28.061Z,33.20
2019-02-27T16:00:57.594Z,34.30
2019-02-27T16:03:26.283Z,34.80
2019-02-27T16:05:54.970Z,35.50
2019-02-27T16:08:25.925Z,36.40
2019-02-27T16:10:55.176Z,36.80
2019-02-27T16:13:24.072Z,37.30
2019-02-27T16:15:53.463Z,38.10
2019-02-27T16:18:22.446Z,38.80
2019-02-27T16:20:51.119Z,39.70
2019-02-27T16:23:19.809Z,40.10
2019-02-27T16:25:52.792Z,40.30
2019-02-27T16:28:18.806Z,40.70
2019-02-27T16:30:47.479Z,41.10
2019-02-27T16:33:16.223Z,41.40
2019-02-27T16:35:46.419Z,41.80
2019-02-27T16:38:15.106Z,42.40
2019-02-27T16:40:43.748Z,43.70
2019-02-27T16:43:13.430Z,43.40
2019-02-27T16:45:42.677Z,43.90
2019-02-27T16:48:11.461Z,44.40
2019-02-27T16:50:40.174Z,44.20
2019-02-27T16:53:08.787Z,44.90
2019-02-27T16:55:39.457Z,44.70
2019-02-27T16:58:07.645Z,44.60
2019-02-27T17:00:38.227Z,43.50
2019-02-27T17:03:06.787Z,42.60
2019-02-27T17:05:35.437Z,42.30
2019-02-27T17:08:04.061Z,41.90
2019-02-27T17:10:39.722Z,42.10
2019-02-27T17:13:08.347Z,42.40
2019-02-27T17:15:36.935Z,42.80
2019-02-27T17:18:05.657Z,43.40
2019-02-27T17:20:34.280Z,44.30
2019-02-27T17:23:07.653Z,44.50
2019-02-27T17:25:33.200Z,44.90
2019-02-27T17:28:01.765Z,45.70
2019-02-27T17:30:36.599Z,46.60
2019-02-27T17:33:04.046Z,47.00
2019-02-27T17:35:33.029Z,47.70
2019-02-27T17:38:03.225Z,48.40
2019-02-27T17:40:36.308Z,49.40
2019-02-27T17:43:02.178Z,50.40
2019-02-27T17:45:30.832Z,50.80
2019-02-27T17:47:59.538Z,51.50
2019-02-27T17:50:30.848Z,52.10
2019-02-27T17:52:58.462Z,53.70
2019-02-27T17:55:27.054Z,54.00
2019-02-27T17:57:58.597Z,54.30
2019-02-27T18:00:29.209Z,55.10
2019-02-27T18:02:57.896Z,56.40
2019-02-27T18:05:26.623Z,56.30
2019-02-27T18:07:55.226Z,56.90
2019-02-27T18:10:23.808Z,57.10
2019-02-27T18:12:52.433Z,59.10
2019-02-27T18:15:22.278Z,58.80
2019-02-27T18:17:51.000Z,59.10
2019-02-27T18:20:24.292Z,58.60
2019-02-27T18:22:50.590Z,59.50
2019-02-27T18:25:19.965Z,59.90
2019-02-27T18:27:49.073Z,62.00
2019-02-27T18:30:22.672Z,63.20
2019-02-27T18:32:53.011Z,62.50
2019-02-27T18:35:29.606Z,62.70
2019-02-27T18:37:58.160Z,64.60
2019-02-27T18:40:27.008Z,65.50
2019-02-27T18:42:56.621Z,66.40
2019-02-27T18:45:29.441Z,66.70
2019-02-27T18:47:58.899Z,68.80
2019-02-27T18:50:27.848Z,69.70
2019-02-27T18:52:56.439Z,68.60
2019-02-27T18:55:29.568Z,69.50
2019-02-27T18:57:55.196Z,71.40
2019-02-27T19:00:28.956Z,69.20
2019-02-27T19:03:06.601Z,69.80
2019-02-27T19:05:38.258Z,71.40
2019-02-27T19:08:05.524Z,71.80
2019-02-27T19:10:43.937Z,71.70
2019-02-27T19:13:13.511Z,72.50
2019-02-27T19:15:45.690Z,71.80
2019-02-27T19:18:13.253Z,72.50
2019-02-27T19:20:44.748Z,74.50
2019-02-27T19:23:17.305Z,76.20
2019-02-27T19:25:44.099Z,76.00
2019-02-27T19:28:12.800Z,76.00
2019-02-27T19:30:42.638Z,77.40
2019-02-27T19:33:11.421Z,77.70
2019-02-27T19:35:43.095Z,78.50
2019-02-27T19:38:12.964Z,80.10
2019-02-27T19:40:42.493Z,79.90
2019-02-27T19:43:11.331Z,80.70
2019-02-27T19:45:42.299Z,79.20
2019-02-27T19:48:11.668Z,81.40
2019-02-27T19:50:44.937Z,81.90
2019-02-27T19:53:10.953Z,83.70
2019-02-27T19:55:39.554Z,84.00
2019-02-27T19:58:08.376Z,83.20
2019-02-27T20:00:38.042Z,83.00
2019-02-27T20:03:07.495Z,85.30
2019-02-27T20:05:36.450Z,85.10
2019-02-27T20:08:09.884Z,85.80
2019-02-27T20:10:36.493Z,84.50
2019-02-27T20:13:06.909Z,85.80
2019-02-27T20:15:35.719Z,85.00
2019-02-27T20:18:07.921Z,85.60
2019-02-27T20:20:39.874Z,86.30
2019-02-27T20:23:06.280Z,88.30
2019-02-27T20:25:34.919Z,88.70
2019-02-27T20:28:03.575Z,89.40
2019-02-27T20:30:32.495Z,90.00
2019-02-27T20:33:02.607Z,90.00
2019-02-27T20:35:32.089Z,89.90
2019-02-27T20:38:01.644Z,90.30
2019-02-27T20:40:34.227Z,90.40
2019-02-27T20:43:02.888Z,90.20
2019-02-27T20:45:53.330Z,91.00
2019-02-27T20:48:22.598Z,90.50
2019-02-27T20:51:12.181Z,90.50
2019-02-27T20:53:52.608Z,91.00
2019-02-27T20:56:19.841Z,91.00
2019-02-27T20:58:51.368Z,91.00
2019-02-27T21:01:18.814Z,90.90
2019-02-27T21:03:47.505Z,91.10
2019-02-27T21:06:16.085Z,90.70
2019-02-27T21:08:44.993Z,90.90
2019-02-27T21:11:13.651Z,91.40
2019-02-27T21:13:42.378Z,92.20
2019-02-27T21:16:11.053Z,92.00
2019-02-27T21:18:39.811Z,91.70
2019-02-27T21:21:08.502Z,92.30
2019-02-27T21:23:37.165Z,92.20
2019-02-27T21:26:05.858Z,92.30
2019-02-27T21:28:41.281Z,92.40
2019-02-27T21:31:09.896Z,92.70
2019-02-27T21:33:38.452Z,92.70
2019-02-27T21:36:07.108Z,92.70
2019-02-27T21:38:37.332Z,93.00
2019-02-27T21:41:11.457Z,93.10
2019-02-27T21:43:36.231Z,93.90
2019-02-27T21:46:04.958Z,93.40
2019-02-27T21:48:33.525Z,93.80
2019-02-27T21:51:02.352Z,94.10
2019-02-27T21:53:30.936Z,94.40
2019-02-27T21:55:59.548Z,95.00
2019-02-27T21:58:31.964Z,95.00
2019-02-27T22:00:58.339Z,94.90
2019-02-27T22:03:26.992Z,94.30
2019-02-27T22:05:55.686Z,94.50
2019-02-27T22:08:25.194Z,95.00
2019-02-27T22:10:54.767Z,95.00
2019-02-27T22:13:29.145Z,95.10
2019-02-27T22:15:56.675Z,95.10
2019-02-27T22:18:24.820Z,95.20
2019-02-27T22:20:53.750Z,95.10
2019-02-27T22:23:22.364Z,95.50
2019-02-27T22:25:51.095Z,96.10
2019-02-27T22:28:19.933Z,96.20
2019-02-27T22:30:49.596Z,95.70
2019-02-27T22:33:21.978Z,95.80
2019-02-27T22:35:48.511Z,96.00
2019-02-27T22:38:17.061Z,96.30
2019-02-27T22:40:45.780Z,96.60
2019-02-27T22:43:14.332Z,96.20
2019-02-27T22:45:44.095Z,96.30
2019-02-27T22:48:12.784Z,96.40
2019-02-27T22:50:41.920Z,96.60
2019-02-27T22:53:10.783Z,97.10
2019-02-27T22:55:42.221Z,96.90
2019-02-27T22:58:09.708Z,97.40
2019-02-27T23:00:56.379Z,97.40
2019-02-27T23:03:30.789Z,97.60
2019-02-27T23:05:59.336Z,97.40
2019-02-27T23:08:27.921Z,98.20
2019-02-27T23:10:57.011Z,98.10
2019-02-27T23:13:25.732Z,97.80
2019-02-27T23:15:57.811Z,97.70
2019-02-27T23:18:24.720Z,98.10
2019-02-27T23:20:55.359Z,98.40
2019-02-27T23:23:23.644Z,98.30
2019-02-27T23:25:52.372Z,98.00
2019-02-27T23:28:20.925Z,97.90
2019-02-27T23:30:49.577Z,98.80
2019-02-27T23:33:18.270Z,99.00
2019-02-27T23:35:49.833Z,98.90
2019-02-27T23:38:17.181Z,98.40
2019-02-27T23:40:49.163Z,98.20
2019-02-27T23:43:16.032Z,98.50
2019-02-27T23:45:45.215Z,98.40
2019-02-27T23:48:13.911Z,98.80
2019-02-27T23:50:43.312Z,98.70
2019-02-27T23:53:12.137Z,98.90
2019-02-27T23:55:44.135Z,98.90
2019-02-27T23:58:11.065Z,99.00
